createdAt,value
2024-03-12T00:03:04.555Z,19.25
2024-03-12T00:06:46.591Z,19.27
2024-03-12T00:10:28.911Z,19.67
2024-03-12T00:14:10.729Z,18.85
2024-03-12T00:17:54.903Z,17.85
2024-03-12T00:21:38.345Z,17.55
2024-03-12T00:25:22.120Z,17.85
2024-03-12T00:29:05.889Z,19.10
2024-03-12T00:32:48.721Z,18.02
2024-03-12T00:36:30.616Z,16.75
2024-03-12T00:40:12.944Z,16.52
2024-03-12T00:43:55.370Z,19.05
2024-03-12T00:47:38.076Z,18.02
2024-03-12T00:51:19.959Z,18.35
2024-03-12T00:55:05.258Z,19.27
2024-03-12T00:58:47.413Z,18.65
2024-03-12T01:02:32.261Z,18.52
2024-03-12T01:06:14.410Z,18.80
2024-03-12T01:09:56.882Z,17.38
2024-03-12T01:13:40.552Z,18.30
2024-03-12T01:17:24.896Z,19.00
2024-03-12T01:21:09.294Z,17.00
2024-03-12T01:24:52.956Z,17.17
2024-03-12T01:28:36.153Z,17.60
2024-03-12T01:32:19.783Z,16.83
2024-03-12T01:36:19.886Z,17.52
2024-03-12T01:40:11.126Z,16.77
2024-03-12T01:44:00.511Z,16.70
2024-03-12T01:47:42.669Z,18.37
2024-03-12T01:51:24.646Z,16.88
2024-03-12T01:55:06.760Z,14.98
2024-03-12T01:58:48.668Z,17.67
2024-03-12T02:02:30.489Z,17.38
2024-03-12T02:06:12.318Z,15.10
2024-03-12T02:09:54.188Z,15.10
2024-03-12T02:13:36.025Z,14.20
2024-03-12T02:17:17.848Z,16.40
2024-03-12T02:20:59.889Z,14.55
2024-03-12T02:24:41.906Z,15.15
2024-03-12T02:28:23.697Z,15.65
2024-03-12T02:32:05.625Z,17.30
2024-03-12T02:35:47.456Z,17.80
2024-03-12T02:39:31.403Z,16.55
2024-03-12T02:43:14.699Z,15.30
2024-03-12T02:46:56.441Z,14.10
2024-03-12T02:50:38.216Z,14.85
2024-03-12T02:54:22.031Z,14.80
2024-03-12T02:58:05.648Z,15.18
2024-03-12T03:01:47.555Z,12.35
2024-03-12T03:05:29.654Z,14.55
2024-03-12T03:09:11.838Z,9.75
2024-03-12T03:12:53.739Z,12.15
2024-03-12T03:16:35.785Z,12.43
2024-03-12T03:20:17.636Z,12.80
2024-03-12T03:23:59.813Z,12.40
2024-03-12T03:27:41.663Z,10.73
2024-03-12T03:31:23.493Z,12.48
2024-03-12T03:35:05.701Z,15.20
2024-03-12T03:38:47.503Z,13.90
2024-03-12T03:42:29.376Z,13.20
2024-03-12T03:46:11.236Z,13.63
2024-03-12T03:49:53.883Z,12.55
2024-03-12T03:53:35.720Z,14.10
2024-03-12T03:57:17.716Z,13.20
2024-03-12T04:01:01.597Z,14.05
2024-03-12T04:04:44.382Z,11.10
2024-03-12T04:08:26.175Z,12.27
2024-03-12T04:12:08.241Z,10.90
2024-03-12T04:15:50.090Z,10.25
2024-03-12T04:19:34.340Z,10.02
2024-03-12T04:23:16.182Z,7.90
2024-03-12T04:26:58.010Z,8.75
2024-03-12T04:30:40.643Z,8.70
2024-03-12T04:34:22.621Z,7.95
2024-03-12T04:38:04.689Z,8.13
2024-03-12T04:41:46.872Z,8.13
2024-03-12T04:45:29.317Z,9.45
2024-03-12T04:49:11.483Z,7.93
2024-03-12T04:52:53.378Z,7.05
2024-03-12T04:56:35.233Z,7.50
2024-03-12T05:00:20.760Z,7.47
2024-03-12T05:04:08.434Z,6.18
2024-03-12T05:07:57.226Z,6.15
2024-03-12T05:11:39.261Z,5.93
2024-03-12T05:15:24.021Z,6.47
2024-03-12T05:19:06.066Z,5.20
2024-03-12T05:22:48.254Z,5.20
2024-03-12T05:26:30.471Z,5.40
2024-03-12T05:30:16.292Z,4.93
2024-03-12T05:34:03.087Z,4.30
2024-03-12T05:38:05.036Z,4.90
2024-03-12T05:42:10.952Z,4.22
2024-03-12T05:46:12.158Z,4.65
2024-03-12T05:49:54.008Z,3.33
2024-03-12T05:53:38.216Z,4.82
2024-03-12T05:57:20.217Z,3.25
2024-03-12T06:01:03.719Z,3.60
2024-03-12T06:04:45.566Z,2.55
2024-03-12T06:08:27.372Z,1.80
2024-03-12T06:12:09.558Z,1.60
2024-03-12T06:15:51.673Z,2.03
2024-03-12T06:19:33.527Z,1.48
2024-03-12T06:23:15.599Z,2.40
2024-03-12T06:26:57.578Z,2.28
2024-03-12T06:30:40.076Z,2.47
2024-03-12T06:34:22.534Z,2.17
2024-03-12T06:38:07.599Z,2.15
2024-03-12T06:41:49.565Z,2.85
2024-03-12T06:45:32.699Z,3.70
2024-03-12T06:49:15.421Z,2.33
2024-03-12T06:52:57.408Z,4.13
2024-03-12T06:56:44.076Z,3.33
2024-03-12T07:00:39.072Z,2.03
2024-03-12T07:04:26.404Z,3.83
2024-03-12T07:08:08.407Z,4.55
2024-03-12T07:11:50.292Z,3.83
2024-03-12T07:15:33.189Z,3.35
2024-03-12T07:19:16.627Z,4.25
2024-03-12T07:22:59.828Z,4.60
2024-03-12T07:26:41.721Z,5.68
2024-03-12T07:30:25.771Z,4.78
2024-03-12T07:34:07.827Z,3.35
2024-03-12T07:37:49.806Z,5.93
2024-03-12T07:41:31.673Z,4.72
2024-03-12T07:45:17.693Z,4.82
2024-03-12T07:48:59.527Z,4.85
2024-03-12T07:52:41.600Z,2.67
2024-03-12T07:56:24.913Z,2.63
2024-03-12T08:00:12.618Z,2.20
2024-03-12T08:03:54.701Z,3.03
2024-03-12T08:07:36.572Z,4.68
2024-03-12T08:11:20.346Z,3.45
2024-03-12T08:15:02.653Z,4.25
2024-03-12T08:18:44.640Z,3.00
2024-03-12T08:22:26.709Z,2.08
2024-03-12T08:26:08.651Z,3.15
2024-03-12T08:29:51.849Z,1.45
2024-03-12T08:33:33.804Z,3.33
2024-03-12T08:37:15.743Z,3.58
2024-03-12T08:40:57.630Z,3.00
2024-03-12T08:44:39.979Z,1.70
2024-03-12T08:48:22.703Z,2.67
2024-03-12T08:52:05.917Z,3.72
2024-03-12T08:55:47.764Z,2.13
2024-03-12T08:59:30.546Z,1.85
2024-03-12T09:03:12.417Z,6.53
2024-03-12T09:06:54.561Z,1.55
2024-03-12T09:10:37.955Z,1.75
2024-03-12T09:14:20.969Z,2.22
2024-03-12T09:18:06.149Z,2.53
2024-03-12T09:21:48.939Z,1.52
2024-03-12T09:25:34.156Z,1.67
2024-03-12T09:29:16.032Z,1.75
2024-03-12T09:32:57.942Z,1.20
2024-03-12T09:36:40.834Z,2.95
2024-03-12T09:40:23.207Z,2.97
2024-03-12T09:44:07.666Z,3.17
2024-03-12T09:47:50.097Z,3.05
2024-03-12T09:51:33.023Z,2.40
2024-03-12T09:55:17.754Z,2.50
2024-03-12T09:59:00.426Z,1.60
2024-03-12T10:02:42.913Z,2.55
2024-03-12T10:06:26.620Z,1.77
2024-03-12T10:10:10.511Z,3.13
2024-03-12T10:13:57.121Z,1.27
2024-03-12T10:17:40.848Z,0.80
2024-03-12T10:21:25.484Z,2.88
2024-03-12T10:25:11.829Z,2.95
2024-03-12T10:28:55.135Z,1.17
2024-03-12T10:32:37.088Z,2.15
2024-03-12T10:36:34.931Z,2.75
2024-03-12T10:40:17.925Z,1.75
2024-03-12T10:44:08.789Z,2.90
2024-03-12T10:47:52.039Z,2.10
2024-03-12T10:51:34.002Z,2.83
2024-03-12T10:55:22.378Z,3.10
2024-03-12T10:59:05.851Z,1.73
2024-03-12T11:02:57.244Z,3.88
2024-03-12T11:06:40.935Z,4.50
2024-03-12T11:10:23.584Z,2.75
2024-03-12T11:14:08.798Z,5.07
2024-03-12T11:17:51.618Z,4.28
2024-03-12T11:21:36.196Z,6.53
2024-03-12T11:25:28.338Z,4.90
2024-03-12T11:29:12.259Z,5.45
2024-03-12T11:32:54.111Z,5.80
2024-03-12T11:36:44.362Z,7.38
2024-03-12T11:44:10.578Z,5.85
2024-03-12T11:47:56.713Z,6.03
2024-03-12T11:51:58.932Z,5.93
2024-03-12T11:56:08.941Z,4.68
2024-03-12T11:59:52.274Z,9.68
2024-03-12T12:03:35.945Z,5.75
2024-03-12T12:07:18.979Z,4.57
2024-03-12T12:11:10.837Z,6.38
2024-03-12T12:14:55.562Z,6.22
2024-03-12T12:18:38.705Z,8.13
2024-03-12T12:22:22.924Z,5.53
2024-03-12T12:26:08.112Z,5.10
2024-03-12T12:29:50.091Z,4.40
2024-03-12T12:33:39.547Z,4.22
2024-03-12T12:37:23.104Z,4.13
2024-03-12T12:41:07.681Z,6.97
2024-03-12T12:44:54.961Z,3.85
2024-03-12T12:48:37.195Z,3.78
2024-03-12T12:52:20.889Z,5.88
2024-03-12T12:56:03.113Z,3.95
2024-03-12T12:59:44.946Z,6.35
2024-03-12T13:03:26.936Z,4.80
2024-03-12T13:07:09.321Z,4.00
2024-03-12T13:11:10.099Z,6.10
2024-03-12T13:14:53.648Z,5.20
2024-03-12T13:18:36.406Z,4.15
2024-03-12T13:22:22.898Z,2.58
2024-03-12T13:26:05.494Z,2.67
2024-03-12T13:29:47.466Z,2.17
2024-03-12T13:33:29.400Z,5.90
2024-03-12T13:37:14.028Z,2.88
2024-03-12T13:40:57.030Z,3.42
2024-03-12T13:44:39.052Z,2.75
2024-03-12T13:48:20.897Z,3.53
2024-03-12T13:52:02.892Z,3.20
2024-03-12T13:55:44.711Z,2.03
2024-03-12T13:59:26.644Z,4.38
2024-03-12T14:03:11.514Z,2.20
2024-03-12T14:06:53.851Z,3.50
2024-03-12T14:10:38.264Z,2.80
2024-03-12T14:14:20.730Z,4.43
2024-03-12T14:18:02.602Z,2.97
2024-03-12T14:21:44.529Z,2.60
2024-03-12T14:25:26.435Z,2.92
2024-03-12T14:29:11.784Z,1.85
2024-03-12T14:32:55.165Z,0.80
2024-03-12T14:36:37.052Z,2.90
2024-03-12T14:40:18.935Z,2.03
2024-03-12T14:44:00.815Z,2.67
2024-03-12T14:47:42.745Z,3.15
2024-03-12T14:51:24.809Z,1.40
2024-03-12T14:55:07.435Z,3.22
2024-03-12T14:58:49.259Z,3.03
2024-03-12T15:02:31.064Z,2.90
2024-03-12T15:06:13.561Z,3.47
2024-03-12T15:09:55.633Z,3.05
2024-03-12T15:13:37.544Z,3.40
2024-03-12T15:17:19.464Z,3.95
2024-03-12T15:21:01.845Z,2.97
2024-03-12T15:24:45.085Z,3.25
2024-03-12T15:28:27.775Z,2.15
2024-03-12T15:32:11.630Z,4.53
2024-03-12T15:35:53.827Z,5.53
2024-03-12T15:39:35.686Z,2.30
2024-03-12T15:43:18.964Z,4.75
2024-03-12T15:47:00.746Z,3.65
2024-03-12T15:50:42.620Z,3.78
2024-03-12T15:54:26.221Z,3.63
2024-03-12T15:58:08.251Z,4.20
2024-03-12T16:01:50.466Z,4.95
2024-03-12T16:05:32.570Z,2.92
2024-03-12T16:09:17.913Z,3.20
2024-03-12T16:13:00.139Z,2.97
2024-03-12T16:16:42.279Z,9.55
2024-03-12T16:20:24.336Z,3.00
2024-03-12T16:24:06.797Z,2.03
2024-03-12T16:27:48.712Z,1.77
2024-03-12T16:31:30.505Z,2.78
2024-03-12T16:35:12.610Z,1.45
2024-03-12T16:38:54.697Z,2.22
2024-03-12T16:42:40.050Z,2.03
2024-03-12T16:46:22.187Z,1.95
2024-03-12T16:50:09.445Z,2.60
2024-03-12T16:53:52.024Z,1.92
2024-03-12T16:57:37.194Z,3.47
2024-03-12T17:01:21.094Z,3.15
2024-03-12T17:05:03.652Z,1.85
2024-03-12T17:08:45.845Z,1.92
2024-03-12T17:12:28.961Z,1.65
2024-03-12T17:16:13.691Z,2.17
2024-03-12T17:19:55.865Z,3.00
2024-03-12T17:23:37.931Z,1.80
2024-03-12T17:27:21.885Z,2.42
2024-03-12T17:31:06.614Z,2.92
2024-03-12T17:34:49.081Z,3.10
2024-03-12T17:38:32.715Z,2.85
2024-03-12T17:42:16.740Z,3.40
2024-03-12T17:45:58.910Z,2.78
2024-03-12T17:49:43.054Z,2.35
2024-03-12T17:53:26.930Z,1.85
2024-03-12T17:57:14.827Z,3.97
2024-03-12T18:00:57.663Z,2.85
2024-03-12T18:04:41.274Z,3.08
2024-03-12T18:08:27.246Z,3.67
2024-03-12T18:12:10.805Z,2.97
2024-03-12T18:15:53.156Z,5.43
2024-03-12T18:19:35.625Z,3.78
2024-03-12T18:23:17.992Z,2.33
2024-03-12T18:27:00.273Z,3.47
2024-03-12T18:30:42.298Z,4.65
2024-03-12T18:34:24.753Z,3.50
2024-03-12T18:38:06.969Z,4.80
2024-03-12T18:41:58.600Z,5.15
2024-03-12T18:45:42.628Z,4.65
2024-03-12T18:49:28.845Z,6.18
2024-03-12T18:53:10.948Z,5.25
2024-03-12T18:56:53.258Z,4.53
2024-03-12T19:00:36.770Z,4.13
2024-03-12T19:04:19.812Z,5.18
2024-03-12T19:08:01.928Z,5.15
2024-03-12T19:11:44.450Z,7.47
2024-03-12T19:15:34.264Z,3.92
2024-03-12T19:19:24.338Z,3.50
2024-03-12T19:26:49.108Z,4.93
2024-03-12T19:30:31.211Z,6.00
2024-03-12T19:34:17.087Z,4.22
2024-03-12T19:37:59.702Z,5.90
2024-03-12T19:41:45.619Z,5.00
2024-03-12T19:45:28.822Z,5.07
2024-03-12T19:49:10.963Z,6.07
2024-03-12T19:52:54.319Z,5.05
2024-03-12T19:56:36.235Z,8.73
2024-03-12T20:00:22.269Z,4.15
2024-03-12T20:04:05.185Z,4.03
2024-03-12T20:07:48.711Z,5.05
2024-03-12T20:11:32.284Z,5.32
2024-03-12T20:15:14.414Z,4.60
2024-03-12T20:18:56.416Z,4.30
2024-03-12T20:22:38.480Z,3.08
2024-03-12T20:26:22.442Z,4.85
2024-03-12T20:30:06.591Z,3.75
2024-03-12T20:33:48.447Z,4.45
2024-03-12T20:37:30.256Z,3.83
2024-03-12T20:41:14.888Z,5.38
2024-03-12T20:44:56.737Z,5.78
2024-03-12T20:48:40.742Z,5.88
2024-03-12T20:52:22.628Z,2.97
2024-03-12T20:56:05.684Z,6.95
2024-03-12T20:59:48.671Z,3.42
2024-03-12T21:03:34.448Z,3.78
2024-03-12T21:07:16.530Z,4.13
2024-03-12T21:10:59.082Z,3.38
2024-03-12T21:14:41.406Z,2.78
2024-03-12T21:18:23.172Z,4.28
2024-03-12T21:22:08.367Z,5.20
2024-03-12T21:25:50.273Z,4.97
2024-03-12T21:29:32.357Z,6.40
2024-03-12T21:33:14.960Z,6.75
2024-03-12T21:36:58.160Z,6.40
2024-03-12T21:40:40.009Z,7.53
2024-03-12T21:44:22.185Z,6.03
2024-03-12T21:48:10.266Z,6.65
2024-03-12T21:51:54.600Z,4.40
2024-03-12T21:55:43.218Z,6.45
2024-03-12T21:59:25.308Z,7.10
2024-03-12T22:03:08.689Z,7.35
2024-03-12T22:06:51.043Z,6.20
2024-03-12T22:10:33.287Z,5.03
2024-03-12T22:14:15.986Z,8.25
2024-03-12T22:18:31.068Z,7.53
2024-03-12T22:22:45.844Z,4.65
2024-03-12T22:26:27.752Z,6.50
2024-03-12T22:30:10.498Z,5.47
2024-03-12T22:33:52.485Z,5.05
2024-03-12T22:37:36.037Z,5.82
2024-03-12T22:41:18.337Z,7.80
2024-03-12T22:45:02.768Z,6.28
2024-03-12T22:48:44.914Z,5.20
2024-03-12T22:52:27.632Z,6.90
2024-03-12T22:56:15.204Z,6.80
2024-03-12T22:59:58.768Z,6.82
2024-03-12T23:03:41.426Z,6.13
2024-03-12T23:07:23.524Z,5.32
2024-03-12T23:11:06.095Z,6.68
2024-03-12T23:14:50.007Z,8.68
2024-03-12T23:18:31.895Z,8.35
2024-03-12T23:22:14.813Z,6.35
2024-03-12T23:25:56.620Z,7.13
2024-03-12T23:29:38.577Z,7.60
2024-03-12T23:33:20.640Z,7.60
2024-03-12T23:37:04.519Z,9.45
2024-03-12T23:40:46.413Z,6.82
2024-03-12T23:44:36.010Z,6.45
2024-03-12T23:48:18.081Z,7.68
2024-03-12T23:51:59.898Z,8.73
2024-03-12T23:55:43.499Z,8.73
2024-03-12T23:59:25.300Z,6.18
